createdAt,value
2022-10-01T00:00:02.009Z,74.86
2022-10-01T00:02:58.369Z,74.88
2022-10-01T00:05:26.761Z,75.16
2022-10-01T00:07:55.165Z,75.04
2022-10-01T00:10:24.114Z,75.14
2022-10-01T00:12:52.245Z,75.23
2022-10-01T00:15:21.879Z,75.32
2022-10-01T00:17:50.071Z,75.26
2022-10-01T00:20:18.880Z,75.22
2022-10-01T00:22:47.933Z,75.44
2022-10-01T00:25:16.361Z,75.45
2022-10-01T00:27:47.592Z,75.34
2022-10-01T00:30:15.760Z,75.39
2022-10-01T00:32:43.866Z,75.47
2022-10-01T00:35:12.505Z,75.57
2022-10-01T00:37:40.641Z,75.63
2022-10-01T00:40:09.608Z,75.58
2022-10-01T00:42:37.838Z,75.72
2022-10-01T00:45:06.123Z,75.70
2022-10-01T00:47:44.948Z,75.87
2022-10-01T00:50:21.896Z,75.87
2022-10-01T00:52:57.405Z,75.87
2022-10-01T00:55:36.387Z,76.11
2022-10-01T00:58:05.412Z,76.11
2022-10-01T01:00:35.320Z,76.19
2022-10-01T01:03:05.112Z,76.33
2022-10-01T01:05:33.188Z,76.39
2022-10-01T01:08:03.099Z,76.47
2022-10-01T01:10:50.309Z,76.55
2022-10-01T01:13:34.396Z,76.49
2022-10-01T01:16:09.404Z,76.68
2022-10-01T01:18:59.295Z,76.85
2022-10-01T01:21:44.524Z,76.85
2022-10-01T01:24:36.959Z,76.97
2022-10-01T01:27:28.720Z,77.04
2022-10-01T01:30:17.105Z,77.14
2022-10-01T01:32:57.445Z,77.22
2022-10-01T01:35:37.746Z,77.42
2022-10-01T01:38:11.591Z,77.30
2022-10-01T01:40:43.637Z,77.49
2022-10-01T01:43:18.680Z,77.50
2022-10-01T01:45:50.095Z,77.65
2022-10-01T01:48:18.359Z,77.73
2022-10-01T01:51:00.663Z,77.73
2022-10-01T01:53:32.317Z,77.87
2022-10-01T01:56:00.655Z,77.90
2022-10-01T01:58:29.510Z,78.05
2022-10-01T02:00:57.699Z,78.12
2022-10-01T02:03:29.339Z,78.20
2022-10-01T02:06:33.689Z,78.27
2022-10-01T02:09:15.944Z,78.33
2022-10-01T02:12:08.880Z,78.26
2022-10-01T02:15:06.118Z,78.41
2022-10-01T02:17:57.081Z,78.42
2022-10-01T02:20:37.805Z,78.53
2022-10-01T02:23:15.164Z,78.60
2022-10-01T02:25:59.740Z,78.80
2022-10-01T02:28:31.417Z,78.62
2022-10-01T02:31:02.222Z,78.91
2022-10-01T02:33:33.571Z,78.91
2022-10-01T02:36:04.518Z,78.88
2022-10-01T02:38:36.876Z,78.94
2022-10-01T02:41:08.372Z,79.05
2022-10-01T02:43:45.664Z,79.03
2022-10-01T02:46:34.460Z,79.12
2022-10-01T02:49:04.579Z,79.34
2022-10-01T02:51:55.972Z,79.40
2022-10-01T02:54:52.196Z,79.44
2022-10-01T02:57:23.543Z,79.38
2022-10-01T02:59:52.138Z,79.59
2022-10-01T03:02:21.319Z,79.44
2022-10-01T03:04:49.518Z,79.48
2022-10-01T03:07:18.744Z,79.54
2022-10-01T03:09:47.010Z,79.47
2022-10-01T03:12:17.244Z,79.51
2022-10-01T03:14:46.407Z,79.64
2022-10-01T03:17:15.256Z,79.72
2022-10-01T03:19:43.507Z,79.76
2022-10-01T03:22:14.544Z,79.89
2022-10-01T03:24:42.847Z,79.84
2022-10-01T03:27:11.232Z,79.86
2022-10-01T03:29:39.359Z,79.95
2022-10-01T03:32:32.648Z,79.92
2022-10-01T03:35:26.795Z,80.01
2022-10-01T03:37:54.927Z,80.09
2022-10-01T03:40:25.438Z,80.17
2022-10-01T03:42:53.606Z,80.17
2022-10-01T03:45:21.819Z,80.26
2022-10-01T03:47:53.383Z,80.17
2022-10-01T03:50:22.159Z,80.38
2022-10-01T03:52:51.460Z,80.50
2022-10-01T03:55:19.619Z,80.35
2022-10-01T03:57:47.967Z,80.58
2022-10-01T04:00:18.559Z,80.57
2022-10-01T04:02:46.896Z,80.61
2022-10-01T04:05:15.319Z,80.58
2022-10-01T04:07:43.633Z,80.50
2022-10-01T04:10:11.950Z,80.66
2022-10-01T04:12:40.091Z,80.71
2022-10-01T04:15:08.657Z,80.54
2022-10-01T04:17:37.626Z,80.58
2022-10-01T04:20:06.173Z,80.36
2022-10-01T04:22:40.758Z,80.55
2022-10-01T04:25:11.037Z,80.61
2022-10-01T04:27:55.297Z,80.72
2022-10-01T04:30:24.043Z,80.84
2022-10-01T04:32:52.318Z,80.79
2022-10-01T04:35:21.469Z,80.68
2022-10-01T04:38:02.057Z,80.88
2022-10-01T04:40:36.406Z,81.14
2022-10-01T04:43:09.725Z,80.96
2022-10-01T04:45:38.246Z,81.08
2022-10-01T04:48:06.414Z,81.19
2022-10-01T04:50:35.034Z,81.38
2022-10-01T04:53:03.169Z,81.46
2022-10-01T04:55:31.421Z,81.49
2022-10-01T04:57:59.652Z,81.47
2022-10-01T05:00:28.038Z,81.57
2022-10-01T05:02:56.301Z,81.58
2022-10-01T05:05:25.117Z,81.61
2022-10-01T05:07:53.331Z,81.70
2022-10-01T05:10:23.287Z,81.64
2022-10-01T05:12:52.179Z,81.85
2022-10-01T05:15:21.124Z,81.66
2022-10-01T05:17:49.304Z,81.66
2022-10-01T05:20:23.115Z,81.82
2022-10-01T05:22:51.284Z,81.88
2022-10-01T05:25:19.845Z,81.95
2022-10-01T05:27:48.116Z,81.83
2022-10-01T05:30:22.375Z,82.08
2022-10-01T05:32:55.655Z,81.88
2022-10-01T05:35:24.619Z,82.13
2022-10-01T05:37:54.180Z,81.95
2022-10-01T05:40:22.595Z,82.00
2022-10-01T05:42:50.695Z,81.92
2022-10-01T05:45:21.087Z,82.10
2022-10-01T05:48:18.904Z,81.87
2022-10-01T05:50:47.175Z,81.94
2022-10-01T05:53:15.884Z,82.08
2022-10-01T05:55:44.356Z,81.92
2022-10-01T05:58:15.845Z,82.08
2022-10-01T06:01:08.709Z,81.95
2022-10-01T06:03:38.952Z,81.85
2022-10-01T06:06:07.084Z,82.00
2022-10-01T06:09:25.725Z,81.74
2022-10-01T06:11:54.095Z,81.82
2022-10-01T06:14:22.743Z,81.50
2022-10-01T06:16:54.859Z,81.46
2022-10-01T06:19:51.587Z,81.31
2022-10-01T06:22:19.934Z,81.23
2022-10-01T06:24:48.078Z,81.09
2022-10-01T06:27:16.330Z,81.17
2022-10-01T06:29:44.747Z,81.04
2022-10-01T06:32:41.138Z,80.85
2022-10-01T06:35:09.479Z,80.92
2022-10-01T06:37:38.750Z,80.82
2022-10-01T06:40:07.558Z,80.56
2022-10-01T06:42:35.762Z,80.54
2022-10-01T06:45:04.362Z,80.40
2022-10-01T06:47:32.558Z,80.21
2022-10-01T06:50:00.774Z,80.08
2022-10-01T06:52:47.982Z,79.98
2022-10-01T06:55:26.528Z,79.81
2022-10-01T06:57:56.749Z,79.53
2022-10-01T07:00:26.256Z,79.47
2022-10-01T07:02:55.874Z,79.47
2022-10-01T07:05:50.179Z,79.44
2022-10-01T07:08:18.953Z,79.65
2022-10-01T07:10:47.236Z,79.46
2022-10-01T07:13:18.143Z,79.33
2022-10-01T07:15:46.630Z,79.13
2022-10-01T07:18:15.066Z,78.98
2022-10-01T07:21:09.637Z,78.99
2022-10-01T07:23:37.809Z,78.53
2022-10-01T07:26:32.863Z,78.58
2022-10-01T07:29:01.497Z,78.55
2022-10-01T07:31:32.373Z,78.49
2022-10-01T07:34:06.097Z,78.54
2022-10-01T07:36:34.406Z,78.01
2022-10-01T07:39:02.558Z,77.96
2022-10-01T07:41:30.931Z,77.75
2022-10-01T07:43:59.246Z,77.67
2022-10-01T07:46:30.385Z,77.36
2022-10-01T07:49:00.974Z,76.89
2022-10-01T07:51:29.201Z,76.62
2022-10-01T07:53:58.213Z,76.14
2022-10-01T07:56:27.081Z,76.06
2022-10-01T07:58:59.234Z,75.54
2022-10-01T08:01:27.420Z,75.10
2022-10-01T08:03:55.877Z,74.76
2022-10-01T08:06:25.771Z,74.38
2022-10-01T08:08:54.767Z,74.01
2022-10-01T08:11:24.841Z,73.59
2022-10-01T08:13:56.117Z,73.12
2022-10-01T08:16:24.520Z,72.79
2022-10-01T08:18:55.482Z,72.55
2022-10-01T08:21:23.803Z,71.94
2022-10-01T08:23:51.962Z,71.07
2022-10-01T08:26:20.210Z,70.32
2022-10-01T08:28:48.378Z,69.76
2022-10-01T08:31:16.656Z,69.30
2022-10-01T08:33:45.614Z,68.74
2022-10-01T08:36:38.929Z,68.20
2022-10-01T08:39:07.631Z,66.79
2022-10-01T08:41:52.257Z,66.98
2022-10-01T08:44:27.978Z,66.49
2022-10-01T08:47:02.050Z,66.13
2022-10-01T08:49:42.419Z,64.77
2022-10-01T08:52:22.347Z,62.97
2022-10-01T08:54:56.873Z,62.58
2022-10-01T08:57:32.929Z,61.42
2022-10-01T09:00:08.100Z,59.96
2022-10-01T09:02:40.066Z,57.59
2022-10-01T09:05:17.762Z,56.58
2022-10-01T09:08:04.326Z,55.44
2022-10-01T09:10:46.612Z,54.99
2022-10-01T09:13:26.667Z,54.51
2022-10-01T09:16:20.840Z,52.90
2022-10-01T09:18:52.020Z,52.29
2022-10-01T09:21:36.897Z,49.92
2022-10-01T09:24:15.079Z,49.39
2022-10-01T09:26:48.896Z,49.49
2022-10-01T09:29:28.646Z,49.42
2022-10-01T09:31:58.408Z,48.32
2022-10-01T09:34:44.151Z,48.36
2022-10-01T09:37:24.295Z,47.94
2022-10-01T09:40:16.223Z,47.49
2022-10-01T09:42:44.525Z,47.95
2022-10-01T09:45:15.040Z,47.93
2022-10-01T09:47:51.347Z,46.92
2022-10-01T09:50:28.648Z,45.75
2022-10-01T09:53:00.436Z,44.29
2022-10-01T09:55:39.157Z,44.82
2022-10-01T09:58:18.664Z,44.07
2022-10-01T10:00:48.517Z,43.77
2022-10-01T10:03:30.873Z,43.90
2022-10-01T10:06:00.190Z,43.87
2022-10-01T10:08:40.200Z,44.05
2022-10-01T10:11:20.656Z,43.08
2022-10-01T10:13:59.730Z,42.28
2022-10-01T10:16:31.099Z,41.09
2022-10-01T10:19:26.720Z,40.68
2022-10-01T10:22:00.812Z,39.89
2022-10-01T10:24:34.540Z,40.13
2022-10-01T10:27:06.638Z,40.49
2022-10-01T10:29:37.292Z,39.55
2022-10-01T10:32:26.224Z,40.48
2022-10-01T10:35:02.940Z,39.67
2022-10-01T10:37:36.980Z,40.12
2022-10-01T10:40:10.163Z,39.21
2022-10-01T10:42:39.030Z,37.54
2022-10-01T10:45:17.855Z,37.12
2022-10-01T10:47:49.684Z,37.23
2022-10-01T10:50:36.183Z,36.24
2022-10-01T10:53:22.392Z,35.22
2022-10-01T10:56:02.041Z,36.33
2022-10-01T10:58:33.488Z,37.32
2022-10-01T11:01:12.240Z,36.78
2022-10-01T11:04:20.872Z,36.64
2022-10-01T11:07:03.114Z,36.81
2022-10-01T11:09:47.782Z,35.32
2022-10-01T11:12:29.428Z,36.05
2022-10-01T11:15:11.234Z,36.00
2022-10-01T11:18:01.251Z,34.77
2022-10-01T11:20:50.739Z,35.22
2022-10-01T11:23:30.999Z,35.24
2022-10-01T11:26:04.904Z,35.46
2022-10-01T11:28:50.306Z,35.19
2022-10-01T11:31:36.842Z,35.83
2022-10-01T11:34:21.727Z,36.25
2022-10-01T11:37:19.341Z,37.27
2022-10-01T11:40:33.558Z,36.47
2022-10-01T11:43:14.371Z,35.92
2022-10-01T11:45:48.474Z,36.37
2022-10-01T11:48:47.806Z,36.80
2022-10-01T11:51:22.955Z,36.91
2022-10-01T11:53:58.447Z,37.51
2022-10-01T11:57:15.555Z,37.95
2022-10-01T11:59:50.715Z,37.85
2022-10-01T12:02:39.360Z,38.76
2022-10-01T12:05:26.566Z,39.42
2022-10-01T12:08:09.454Z,39.80
2022-10-01T12:10:40.689Z,39.74
2022-10-01T12:13:22.817Z,39.96
2022-10-01T12:15:54.141Z,39.03
2022-10-01T12:18:44.509Z,37.88
2022-10-01T12:21:44.432Z,36.87
2022-10-01T12:24:36.641Z,36.98
2022-10-01T12:27:26.584Z,37.07
2022-10-01T12:30:07.579Z,37.34
2022-10-01T12:32:38.721Z,37.44
2022-10-01T12:35:27.854Z,37.68
2022-10-01T12:38:32.694Z,38.40
2022-10-01T12:41:09.413Z,39.16
2022-10-01T12:44:02.952Z,40.18
2022-10-01T12:47:19.110Z,40.88
2022-10-01T12:50:16.620Z,42.18
2022-10-01T12:53:02.977Z,42.14
2022-10-01T12:55:48.639Z,42.10
2022-10-01T12:58:38.140Z,42.59
2022-10-01T13:01:11.930Z,42.56
2022-10-01T13:04:03.503Z,42.50
2022-10-01T13:06:53.202Z,42.58
2022-10-01T13:09:45.364Z,43.05
2022-10-01T13:12:31.380Z,43.14
2022-10-01T13:15:00.214Z,43.30
2022-10-01T13:17:49.584Z,43.51
2022-10-01T13:20:21.356Z,42.50
2022-10-01T13:23:07.380Z,41.93
2022-10-01T13:25:56.821Z,42.13
2022-10-01T13:28:29.180Z,42.06
2022-10-01T13:31:00.879Z,40.55
2022-10-01T13:33:36.269Z,40.24
2022-10-01T13:36:06.327Z,39.63
2022-10-01T13:38:40.711Z,39.89
2022-10-01T13:41:17.943Z,40.38
2022-10-01T13:43:58.219Z,40.20
2022-10-01T13:46:32.481Z,41.06
2022-10-01T13:49:14.028Z,42.10
2022-10-01T13:51:45.387Z,42.96
2022-10-01T13:54:25.411Z,43.40
2022-10-01T13:56:53.651Z,44.18
2022-10-01T13:59:32.987Z,44.75
2022-10-01T14:02:01.309Z,45.06
2022-10-01T14:04:40.378Z,45.95
2022-10-01T14:07:22.087Z,46.41
2022-10-01T14:09:54.499Z,47.08
2022-10-01T14:12:53.624Z,47.54
2022-10-01T14:15:48.523Z,47.97
2022-10-01T14:18:21.244Z,47.84
2022-10-01T14:21:02.369Z,48.06
2022-10-01T14:23:55.039Z,48.26
2022-10-01T14:26:44.954Z,48.43
2022-10-01T14:29:28.882Z,48.68
2022-10-01T14:32:15.803Z,49.30
2022-10-01T14:35:12.919Z,49.69
2022-10-01T14:37:41.147Z,50.03
2022-10-01T14:40:22.999Z,50.60
2022-10-01T14:43:02.314Z,50.87
2022-10-01T14:45:30.500Z,51.37
2022-10-01T14:48:07.204Z,51.72
2022-10-01T14:50:37.764Z,52.41
2022-10-01T14:53:06.890Z,52.80
2022-10-01T14:55:35.940Z,53.20
2022-10-01T14:58:05.326Z,53.72
2022-10-01T15:00:34.906Z,53.93
2022-10-01T15:03:17.775Z,54.48
2022-10-01T15:05:47.741Z,54.59
2022-10-01T15:08:40.574Z,55.02
2022-10-01T15:11:14.668Z,55.31
2022-10-01T15:13:45.054Z,55.69
2022-10-01T15:16:17.922Z,55.75
2022-10-01T15:18:50.307Z,56.19
2022-10-01T15:21:48.322Z,56.47
2022-10-01T15:24:29.651Z,56.89
2022-10-01T15:26:58.862Z,57.19
2022-10-01T15:29:27.771Z,57.28
2022-10-01T15:31:58.497Z,57.54
2022-10-01T15:34:27.842Z,57.87
2022-10-01T15:36:56.962Z,58.29
2022-10-01T15:39:30.148Z,58.90
2022-10-01T15:42:01.361Z,59.00
2022-10-01T15:44:41.236Z,59.01
2022-10-01T15:47:34.239Z,59.18
2022-10-01T15:50:11.223Z,59.57
2022-10-01T15:52:54.538Z,59.85
2022-10-01T15:55:28.285Z,59.80
2022-10-01T15:58:06.948Z,60.28
2022-10-01T16:00:53.433Z,60.29
2022-10-01T16:03:30.204Z,60.56
2022-10-01T16:06:01.941Z,60.61
2022-10-01T16:08:36.871Z,60.83
2022-10-01T16:11:14.691Z,61.02
2022-10-01T16:13:49.200Z,61.30
2022-10-01T16:16:22.173Z,61.35
2022-10-01T16:19:21.855Z,61.63
2022-10-01T16:22:19.833Z,61.87
2022-10-01T16:24:50.795Z,62.06
2022-10-01T16:27:22.061Z,62.05
2022-10-01T16:30:13.152Z,62.32
2022-10-01T16:32:41.296Z,62.70
2022-10-01T16:35:17.136Z,62.90
2022-10-01T16:37:47.732Z,63.06
2022-10-01T16:40:21.823Z,63.09
2022-10-01T16:42:51.118Z,63.49
2022-10-01T16:45:24.333Z,63.52
2022-10-01T16:47:54.049Z,63.55
2022-10-01T16:50:23.069Z,63.97
2022-10-01T16:52:55.762Z,64.06
2022-10-01T16:55:26.516Z,64.08
2022-10-01T16:57:55.019Z,64.34
2022-10-01T17:00:25.847Z,64.51
2022-10-01T17:02:55.553Z,64.75
2022-10-01T17:05:30.159Z,64.85
2022-10-01T17:08:01.003Z,65.10
2022-10-01T17:10:32.784Z,65.07
2022-10-01T17:13:02.208Z,65.37
2022-10-01T17:15:31.363Z,65.51
2022-10-01T17:18:00.189Z,65.50
2022-10-01T17:20:29.861Z,65.75
2022-10-01T17:22:58.825Z,65.85
2022-10-01T17:25:34.525Z,65.94
2022-10-01T17:28:08.560Z,66.02
2022-10-01T17:30:40.509Z,66.22
2022-10-01T17:33:11.209Z,66.40
2022-10-01T17:35:45.469Z,66.53
2022-10-01T17:38:13.793Z,66.61
2022-10-01T17:40:43.273Z,66.66
2022-10-01T17:43:12.364Z,66.77
2022-10-01T17:45:40.989Z,66.82
2022-10-01T17:48:09.900Z,66.85
2022-10-01T17:50:43.635Z,67.04
2022-10-01T17:53:12.454Z,67.23
2022-10-01T17:55:46.832Z,67.37
2022-10-01T17:58:16.022Z,67.55
2022-10-01T18:00:44.357Z,67.60
2022-10-01T18:03:12.687Z,67.62
2022-10-01T18:05:42.303Z,67.74
2022-10-01T18:08:10.466Z,67.72
2022-10-01T18:10:38.744Z,67.79
2022-10-01T18:13:06.962Z,67.94
2022-10-01T18:15:35.227Z,68.06
2022-10-01T18:20:51.483Z,68.41
2022-10-01T18:23:19.674Z,68.64
2022-10-01T18:25:47.870Z,68.71
2022-10-01T18:28:16.065Z,68.80
2022-10-01T18:30:44.355Z,68.89
2022-10-01T18:33:12.999Z,68.98
2022-10-01T18:35:44.264Z,69.16
2022-10-01T18:38:27.449Z,69.26
2022-10-01T18:41:08.657Z,69.51
2022-10-01T18:43:38.792Z,69.55
2022-10-01T18:46:14.901Z,69.77
2022-10-01T18:48:45.888Z,69.85
2022-10-01T18:51:38.304Z,70.05
2022-10-01T18:54:24.742Z,70.14
2022-10-01T18:57:17.731Z,70.24
2022-10-01T19:00:17.624Z,70.46
2022-10-01T19:03:28.631Z,70.56
2022-10-01T19:06:11.662Z,70.90
2022-10-01T19:09:11.672Z,71.03
2022-10-01T19:12:04.634Z,71.21
2022-10-01T19:14:56.144Z,71.60
2022-10-01T19:17:32.738Z,71.75
2022-10-01T19:20:00.836Z,71.93
2022-10-01T19:22:56.113Z,72.22
2022-10-01T19:25:51.335Z,72.44
2022-10-01T19:28:53.335Z,73.03
2022-10-01T19:31:41.862Z,73.43
2022-10-01T19:34:18.770Z,73.68
2022-10-01T19:36:56.369Z,74.05
2022-10-01T19:39:30.394Z,74.31
2022-10-01T19:42:25.258Z,74.78
2022-10-01T19:44:58.563Z,75.00
2022-10-01T19:47:46.023Z,75.08
2022-10-01T19:50:31.776Z,75.23
2022-10-01T19:53:02.261Z,75.50
2022-10-01T19:55:38.773Z,75.91
2022-10-01T19:58:18.894Z,76.16
2022-10-01T20:00:51.620Z,76.15
2022-10-01T20:03:43.423Z,76.30
2022-10-01T20:06:28.598Z,76.78
2022-10-01T20:09:03.946Z,76.96
2022-10-01T20:11:55.461Z,77.15
2022-10-01T20:15:02.286Z,77.58
2022-10-01T20:18:13.095Z,78.10
2022-10-01T20:21:14.173Z,77.99
2022-10-01T20:23:49.617Z,78.48
2022-10-01T20:26:36.941Z,78.63
2022-10-01T20:29:43.503Z,78.89
2022-10-01T20:32:36.011Z,79.24
2022-10-01T20:35:26.535Z,79.51
2022-10-01T20:38:15.232Z,79.69
2022-10-01T20:40:55.682Z,79.81
2022-10-01T20:43:31.461Z,80.16
2022-10-01T20:46:14.927Z,80.44
2022-10-01T20:48:47.795Z,80.61
2022-10-01T20:51:30.773Z,80.67
2022-10-01T20:54:16.542Z,80.72
2022-10-01T20:56:57.045Z,80.84
2022-10-01T20:59:33.172Z,81.07
2022-10-01T21:02:19.657Z,81.00
2022-10-01T21:04:56.519Z,81.12
2022-10-01T21:07:36.648Z,81.10
2022-10-01T21:10:17.333Z,81.07
2022-10-01T21:12:56.076Z,81.25
2022-10-01T21:15:35.244Z,81.37
2022-10-01T21:18:46.832Z,81.47
2022-10-01T21:21:42.440Z,81.88
2022-10-01T21:24:36.848Z,82.13
2022-10-01T21:27:53.075Z,82.30
2022-10-01T21:30:22.420Z,82.37
2022-10-01T21:33:16.202Z,82.59
2022-10-01T21:35:47.346Z,82.65
2022-10-01T21:38:28.189Z,82.50
2022-10-01T21:41:16.380Z,82.58
2022-10-01T21:44:21.723Z,82.73
2022-10-01T21:47:00.249Z,82.78
2022-10-01T21:49:51.431Z,82.84
2022-10-01T21:52:43.683Z,82.98
2022-10-01T21:55:33.058Z,82.98
2022-10-01T21:58:25.972Z,82.98
2022-10-01T22:01:09.674Z,83.18
2022-10-01T22:03:46.414Z,83.43
2022-10-01T22:06:26.715Z,83.44
2022-10-01T22:09:24.239Z,83.48
2022-10-01T22:11:56.485Z,83.48
2022-10-01T22:14:26.475Z,83.49
2022-10-01T22:17:03.808Z,83.38
2022-10-01T22:19:39.008Z,83.51
2022-10-01T22:22:14.647Z,83.52
2022-10-01T22:25:08.867Z,83.66
2022-10-01T22:27:52.097Z,83.73
2022-10-01T22:30:25.751Z,83.97
2022-10-01T22:33:12.224Z,84.05
2022-10-01T22:35:44.558Z,84.03
2022-10-01T22:38:30.716Z,84.28
2022-10-01T22:41:07.009Z,84.23
2022-10-01T22:44:09.897Z,84.39
2022-10-01T22:47:02.409Z,84.69
2022-10-01T22:49:38.477Z,84.62
2022-10-01T22:52:43.441Z,84.92
2022-10-01T22:55:48.137Z,85.20
2022-10-01T22:58:32.864Z,85.59
2022-10-01T23:01:22.388Z,85.97
2022-10-01T23:04:11.762Z,86.06
2022-10-01T23:06:58.407Z,86.36
2022-10-01T23:09:35.033Z,86.62
2022-10-01T23:12:16.601Z,86.72
2022-10-01T23:14:53.843Z,87.00
2022-10-01T23:17:29.064Z,87.03
2022-10-01T23:20:12.352Z,87.41
2022-10-01T23:22:54.108Z,87.53
2022-10-01T23:25:54.843Z,87.74
2022-10-01T23:28:47.588Z,88.05
2022-10-01T23:31:31.630Z,88.14
2022-10-01T23:34:21.197Z,88.34
2022-10-01T23:37:00.103Z,88.44
2022-10-01T23:40:03.699Z,88.51
2022-10-01T23:42:47.655Z,88.52
2022-10-01T23:46:02.158Z,88.53
2022-10-01T23:48:48.607Z,88.70
2022-10-01T23:51:28.755Z,88.80
2022-10-01T23:54:17.414Z,88.74
2022-10-01T23:57:10.339Z,88.79
